LiveATC.Net - Listen to live air traffic control over the Internet!


ICAO: KRDK  IATA: RDK   Airport: Red Oak Municipal Airport
City: Red Oak   State/Province: Iowa
Country: United States   Continent: North America
KRDK METAR Weather: KRDK 251515Z AUTO 12008G15KT 7SM BKN016 BKN020 BKN085 22/20 A2993 RMK AO2
KRDK Flight Activity (FlightAware)
KRDK Airport Info   (AirNav) (iFlightPlanner)
KRDK VFR Sectional Chart   (iFlightPlanner) 
KRDK IFR Low Chart   (iFlightPlanner) 

KRDK CTAF
Feed Status: UP   Listeners: 0
Listen right in your browser - requires Flash (in browser, requires Flash)
Click here to listen with your own player (launches your MP3 player)
KRDK CTAF Audio Archives
FacilityFrequency
Red Oak CTAF122.800

NOTICE

Unauthorized use prohibited. See LiveATC.net Terms of Service


Find LiveATC Audio Streams


Airport/ARTCC Code

Frequency Search
(e.g., 124.400, 128.75)
Site-wide search
 


Browse LiveATC Feeds
LiveATC Coverage Map
Top 50 LiveATC Feeds
Bad Weather Areas

LiveATC FAQ
Offer a LiveATC Feed
Contact LiveATC.net
Press Inquiries

LiveATC on iPhone
LiveATC on Android

Windows Phone
Windows 8/10

LiveATC Mobile
(Mobile browser)

ATC Audio Archives
Interesting Recordings

LiveATC Forums


Home Page
About LiveATC.net
Make a Donation
Terms of Use
Privacy Policy

Canadian Air Freqs

AIRMETs/SIGMETs

FAA Airport Status
Nat'l Airspace Status
Arrival Demand Charts


Server Software By:
Icecast.org
Liquidsoap